Minneapolis, Minnesota
Traffic Map
Current Weather Conditions
Minneapolis, Minnesota
Overcast Haze
Overcast
28°
Feels Like: 28°
Wind Chill: 28° Ceiling: 800
Heat Index: 28° Visibility: 4mi
Dew Point: 25° Wind: 3mph
Humidity: 88% Direction: 240° (WSW)
Pressure: 30.03in Gusts: 0mph
Raw Report DataKMSP 131818Z 24003KT 4SM BR OVC008 M02/M04 A3003 RMK AO2 T10221039
Traffic Incident Summary
Active as of:
Severity:
Category:
InformationThere was an issue retrieving the traffic information for this location. Please try a different location or try again shortly.
Advertisements